Time;durP1;ratioP1;P1;durP2;ratioP2;P2;SDS_P1;SDS_P2;PMS_P1;PMS_P2;Temp;Humidity;BMP_temperature;BMP_pressure;BME280_temperature;BME280_humidity;BME280_pressure;Samples;Min_cycle;Max_cycle;Signal;HPM_P1;HPM_P2
2023/12/01 00:02:21;;;;;;;;;;;0.10;54.00;;;-1.58;59.94;100039.88;12250288;19;20242;-86
2023/12/01 00:06:22;;;;;;;;;;;0.20;54.10;;;-1.94;59.85;99980.75;12255879;19;19911;-86
2023/12/01 00:10:24;;;;;;;;;;;0.20;54.10;;;-1.63;59.73;100046.78;12251383;19;19945;-86
2023/12/01 00:14:26;;;;;;;;;;;0.20;54.10;;;-1.68;59.67;100035.75;12254883;19;19930;-86
2023/12/01 00:18:27;;;;;;;;;;;0.20;54.10;;;-1.52;59.87;100052.56;12253014;19;19919;-86
2023/12/01 00:22:29;;;;;;;;;;;0.20;54.10;;;-1.52;59.75;100060.25;12254010;19;19925;-86
2023/12/01 00:26:31;;;;;;;;;;;0.60;54.30;;;-1.54;59.94;100067.09;12254482;19;19915;-86
2023/12/01 00:30:34;;;;;;;;;;;0.30;54.10;;;-1.54;59.98;100071.38;12251772;19;19919;-86
2023/12/01 00:34:35;;;;;;;;;;;0.30;54.10;;;-1.57;59.93;100062.91;12252491;19;19927;-86
2023/12/01 00:38:36;;;;;;;;;;;0.50;54.20;;;-1.58;59.92;100061.19;12249941;19;19982;-86
2023/12/01 00:42:38;;;;;;;;;;;0.30;54.50;;;-1.82;59.87;100013.81;12253728;19;19910;-86
2023/12/01 00:46:40;;;;;;;;;;;0.50;54.20;;;-1.62;59.78;100045.91;12254440;19;19999;-86
2023/12/01 00:50:42;;;;;;;;;;;0.40;54.10;;;-1.57;59.90;100054.34;12250289;19;19923;-87
2023/12/01 00:54:43;;;;;;;;;;;0.30;54.00;;;-1.81;59.92;100030.88;12254675;19;19907;-86
2023/12/01 00:58:45;;;;;;;;;;;0.30;54.00;;;-1.78;59.84;100029.97;12249343;19;19927;-86
2023/12/01 01:02:46;;;;;;;;;;;0.30;54.10;;;-1.79;59.91;100034.22;12251797;19;19943;-86
2023/12/01 01:06:48;;;;;;;;;;;0.30;54.10;;;-1.57;60.07;100064.59;12251866;19;19982;-86
2023/12/01 01:10:49;;;;;;;;;;;0.30;54.10;;;-1.55;59.82;100073.09;12245356;19;19931;-86
2023/12/01 01:14:51;;;;;;;;;;;0.30;54.10;;;-1.59;59.96;100071.47;12254569;19;20321;-86
2023/12/01 01:18:52;;;;;;;;;;;0.60;54.20;;;-1.57;59.79;100085.06;12246377;19;19919;-86
2023/12/01 01:22:54;;;;;;;;;;;0.30;54.10;;;-1.62;59.77;100074.94;12251144;19;19911;-86
2023/12/01 01:26:55;;;;;;;;;;;0.40;54.10;;;-1.67;60.00;100068.19;12250529;19;19932;-86
2023/12/01 01:30:57;;;;;;;;;;;0.30;54.00;;;-1.59;59.87;100086.84;12249670;19;19907;-86
2023/12/01 01:34:59;;;;;;;;;;;0.30;54.00;;;-1.70;59.86;100078.44;12251277;19;19927;-86
2023/12/01 01:39:00;;;;;;;;;;;0.30;54.00;;;-1.63;59.94;100088.56;12249758;19;20334;-86
2023/12/01 01:43:02;;;;;;;;;;;0.50;54.10;;;-1.67;59.86;100084.38;12250310;19;19922;-86
2023/12/01 01:47:04;;;;;;;;;;;0.20;53.90;;;-1.62;59.86;100100.53;12250901;19;19921;-86
2023/12/01 01:51:08;;;;;;;;;;;0.30;54.00;;;-2.09;59.85;100032.16;12246523;19;19970;-86
2023/12/01 01:55:10;;;;;;;;;;;0.20;53.90;;;-1.63;59.96;100097.97;12248685;19;19974;-86
2023/12/01 01:59:13;;;;;;;;;;;0.30;53.90;;;-1.67;59.76;100089.50;12247713;19;19911;-86
2023/12/01 02:03:16;;;;;;;;;;;0.20;53.90;;;-1.82;59.85;100069.25;12247142;19;19927;-86
2023/12/01 02:07:27;;;;;;;;;;;0.10;53.90;;;-1.80;60.00;100078.59;12248978;19;20258;-86
2023/12/01 02:11:29;;;;;;;;;;;0.20;53.90;;;-1.73;59.98;100093.84;12246378;19;19942;-86
2023/12/01 02:15:32;;;;;;;;;;;0.10;53.90;;;-1.84;59.98;100073.53;12250060;19;19918;-86
2023/12/01 02:19:33;;;;;;;;;;;0.10;53.90;;;-1.71;59.88;100089.56;12244436;19;20316;-86
2023/12/01 02:23:35;;;;;;;;;;;0.10;53.90;;;-1.75;59.97;100083.66;12266950;19;19923;-87
2023/12/01 02:27:36;;;;;;;;;;;0.30;53.90;;;-1.88;59.79;100074.47;12271359;19;19915;-86
2023/12/01 02:31:38;;;;;;;;;;;0.10;53.80;;;-1.82;59.85;100095.69;12268407;19;19915;-87
2023/12/01 02:35:43;;;;;;;;;;;0.00;53.80;;;-1.99;59.90;100074.63;12271696;19;20312;-86
2023/12/01 02:39:44;;;;;;;;;;;0.00;53.70;;;-1.88;59.88;100088.09;12267539;19;19915;-86
2023/12/01 02:43:47;;;;;;;;;;;0.00;53.80;;;-1.95;59.86;100091.63;12264880;19;19919;-86
2023/12/01 02:47:49;;;;;;;;;;;0.10;53.80;;;-2.00;59.68;100083.16;12271212;19;20303;-86
2023/12/01 02:51:50;;;;;;;;;;;-0.10;53.70;;;-2.04;59.83;100079.81;12267150;19;19915;-86
2023/12/01 02:55:52;;;;;;;;;;;0.20;53.80;;;-2.32;59.60;100045.25;12269110;19;19919;-86
2023/12/01 02:59:54;;;;;;;;;;;-0.20;53.60;;;-2.31;59.67;100058.00;12266283;19;19919;-86
2023/12/01 03:03:55;;;;;;;;;;;0.10;53.80;;;-2.37;59.72;100047.03;12269232;19;19978;-86
2023/12/01 03:07:57;;;;;;;;;;;-0.20;53.70;;;-2.51;59.69;100035.28;12270924;19;20309;-86
2023/12/01 03:11:59;;;;;;;;;;;0.10;53.80;;;-2.11;59.69;100108.88;12267729;19;20240;-86
2023/12/01 03:16:01;;;;;;;;;;;-0.30;53.70;;;-2.20;59.87;100105.63;12270007;19;20255;-86
2023/12/01 03:20:10;;;;;;;;;;;-0.30;53.60;;;-2.16;59.68;100112.38;12264960;19;20283;-86
2023/12/01 03:24:11;;;;;;;;;;;-0.30;53.60;;;-2.22;59.83;100111.56;12269888;19;19981;-86
2023/12/01 03:28:14;;;;;;;;;;;-0.40;53.60;;;-2.34;59.62;100098.13;12268936;19;19907;-86
2023/12/01 03:32:16;;;;;;;;;;;-0.30;53.60;;;-2.24;59.75;100123.56;12260602;19;19954;-86
2023/12/01 03:36:17;;;;;;;;;;;-0.30;53.60;;;-2.26;59.70;100120.16;12256548;19;20409;-86
2023/12/01 03:40:19;;;;;;;;;;;-0.40;53.60;;;-2.34;59.68;100108.34;12253579;19;19919;-86
2023/12/01 03:44:20;;;;;;;;;;;-0.30;53.70;;;-2.42;59.60;100103.31;12256487;19;19915;-86
2023/12/01 03:48:22;;;;;;;;;;;-0.50;53.60;;;-2.64;59.72;100074.63;12254478;19;19915;-86
2023/12/01 03:52:24;;;;;;;;;;;-0.50;53.60;;;-2.49;59.86;100096.59;12256386;19;19919;-86
2023/12/01 03:56:25;;;;;;;;;;;-0.50;53.60;;;-2.66;59.78;100073.78;12256383;19;19922;-86
2023/12/01 04:00:32;;;;;;;;;;;-0.50;53.60;;;-2.82;59.69;100050.13;12250889;19;20429;-86
2023/12/01 04:04:34;;;;;;;;;;;-0.40;53.60;;;-2.78;59.53;100064.56;12255974;19;19917;-86
2023/12/01 04:08:35;;;;;;;;;;;-0.30;53.60;;;-2.90;59.51;100050.22;12255245;19;20599;-86
2023/12/01 04:12:44;;;;;;;;;;;-0.40;53.60;;;-2.48;59.71;100131.53;12256428;19;20269;-85
2023/12/01 04:16:48;;;;;;;;;;;-0.70;53.40;;;-2.56;59.80;100123.94;12252985;19;19919;-85
2023/12/01 04:20:49;;;;;;;;;;;-0.50;53.50;;;-2.59;59.52;100125.66;12249181;19;19911;-86
2023/12/01 04:24:51;;;;;;;;;;;-0.70;53.40;;;-2.57;59.75;100134.16;12253699;19;19934;-86
2023/12/01 04:28:53;;;;;;;;;;;-0.70;53.50;;;-2.69;59.67;100110.44;12251810;19;19927;-86
2023/12/01 04:32:55;;;;;;;;;;;-0.80;53.50;;;-3.19;59.66;100034.34;12252374;19;19915;-86
2023/12/01 04:36:56;;;;;;;;;;;-0.80;53.50;;;-2.68;59.59;100132.56;12251464;19;19918;-86
2023/12/01 04:40:57;;;;;;;;;;;-0.80;53.50;;;-2.75;59.66;100125.84;12250124;19;20329;-86
2023/12/01 04:44:59;;;;;;;;;;;-0.80;53.50;;;-2.71;59.69;100140.28;12252929;19;19923;-86
2023/12/01 04:49:00;;;;;;;;;;;-0.90;53.40;;;-2.78;59.60;100125.91;12252196;19;20256;-86
2023/12/01 04:53:02;;;;;;;;;;;-0.80;53.50;;;-2.70;59.64;100144.53;12251626;19;19952;-86
2023/12/01 04:57:04;;;;;;;;;;;-0.90;53.40;;;-2.84;59.59;100130.19;12251852;19;20378;-86
2023/12/01 05:01:05;;;;;;;;;;;-0.90;53.40;;;-2.78;59.71;100136.13;12248686;19;19915;-86
2023/12/01 05:05:11;;;;;;;;;;;-0.90;53.80;;;-3.13;59.52;100077.72;12251888;19;20293;-86
2023/12/01 05:09:21;;;;;;;;;;;-0.90;53.50;;;-2.78;59.63;100141.22;12251494;19;19926;-86
2023/12/01 05:13:23;;;;;;;;;;;-0.90;53.50;;;-2.87;59.59;100131.06;12252860;19;19925;-86
2023/12/01 05:17:25;;;;;;;;;;;-0.90;53.50;;;-2.96;59.67;100118.41;12250628;19;19929;-86
2023/12/01 05:21:26;;;;;;;;;;;-1.00;53.40;;;-3.16;59.77;100091.38;12249745;19;19922;-86
2023/12/01 05:25:32;;;;;;;;;;;-1.00;53.50;;;-2.79;59.64;100141.22;12252060;19;19929;-86
2023/12/01 05:29:35;;;;;;;;;;;-1.00;53.50;;;-2.95;59.67;100132.84;12248720;19;20409;-86
2023/12/01 05:33:38;;;;;;;;;;;-0.90;53.50;;;-2.97;59.58;100135.44;12244115;19;19918;-86
2023/12/01 05:37:41;;;;;;;;;;;-1.00;53.50;;;-2.91;59.63;100149.88;12251487;19;19922;-86
2023/12/01 05:41:43;;;;;;;;;;;-1.00;53.50;;;-3.29;59.70;100087.22;12247082;19;19930;-86
2023/12/01 05:45:45;;;;;;;;;;;-0.70;53.50;;;-3.00;59.66;100132.06;12252043;19;19930;-86
2023/12/01 05:49:47;;;;;;;;;;;-1.00;53.40;;;-3.45;59.65;100062.69;12247122;19;19915;-86
2023/12/01 05:53:49;;;;;;;;;;;-1.00;53.80;;;-3.23;59.66;100112.69;12247810;19;19929;-86
2023/12/01 05:57:53;;;;;;;;;;;-1.00;53.40;;;-3.24;59.66;100126.34;12238843;19;19911;-86
2023/12/01 06:01:54;;;;;;;;;;;-0.80;53.90;;;-3.00;59.62;100172.91;12244745;19;19928;-86
2023/12/01 06:05:55;;;;;;;;;;;-1.00;53.40;;;-3.42;59.71;100108.63;12246333;19;20339;-86
2023/12/01 06:09:57;;;;;;;;;;;-1.10;53.40;;;-2.95;59.55;100183.94;12246956;19;19915;-86
2023/12/01 06:13:59;;;;;;;;;;;-0.80;53.60;;;-3.40;59.61;100130.72;12247746;19;19925;-86
2023/12/01 06:18:02;;;;;;;;;;;-1.10;53.40;;;-3.50;59.70;100118.03;12249105;19;19940;-86
2023/12/01 06:22:04;;;;;;;;;;;-1.00;53.40;;;-3.16;59.63;100173.06;12242665;19;19922;-86
2023/12/01 06:26:05;;;;;;;;;;;-1.10;53.40;;;-3.05;59.70;100187.44;12246215;19;19915;-86
2023/12/01 06:30:13;;;;;;;;;;;-1.10;53.40;;;-3.05;59.79;100198.50;12243954;19;19994;-86
2023/12/01 06:34:15;;;;;;;;;;;-1.10;53.40;;;-3.06;59.77;100186.59;12245889;19;19910;-87
2023/12/01 06:38:16;;;;;;;;;;;-1.10;53.40;;;-3.05;59.74;100195.97;12247256;19;19943;-86
2023/12/01 06:42:18;;;;;;;;;;;-1.10;53.40;;;-3.40;59.65;100140.06;12251635;19;19927;-87
2023/12/01 06:46:19;;;;;;;;;;;-1.10;53.40;;;-3.15;59.68;100190.06;12251685;19;19934;-86
2023/12/01 06:50:22;;;;;;;;;;;-1.10;53.40;;;-3.07;59.67;100204.50;12245418;19;19915;-86
2023/12/01 06:54:23;;;;;;;;;;;-1.00;53.50;;;-3.29;59.84;100168.91;12245297;19;19923;-86
2023/12/01 06:58:25;;;;;;;;;;;-1.10;53.50;;;-3.04;59.76;100207.03;12245791;19;20337;-85
2023/12/01 07:02:26;;;;;;;;;;;-1.10;53.50;;;-3.03;59.78;100211.25;12246760;19;19936;-86
2023/12/01 07:06:28;;;;;;;;;;;-1.10;53.40;;;-3.16;59.65;100201.16;12246788;19;19931;-86
2023/12/01 07:10:29;;;;;;;;;;;-0.80;53.50;;;-3.14;59.77;100219.00;12251557;19;20346;-85
2023/12/01 07:14:31;;;;;;;;;;;-1.10;53.40;;;-3.13;59.75;100223.25;12259722;19;19938;-86
2023/12/01 07:18:32;;;;;;;;;;;-1.20;53.40;;;-3.04;59.72;100246.16;12256287;19;19915;-87
2023/12/01 07:22:33;;;;;;;;;;;-1.10;53.50;;;-3.05;59.73;100243.63;12257109;19;20341;-86
2023/12/01 07:26:35;;;;;;;;;;;-1.10;53.50;;;-3.13;59.71;100236.88;12259613;19;19928;-86
2023/12/01 07:30:40;;;;;;;;;;;-1.20;53.40;;;-3.18;59.78;100233.50;12250502;19;20363;-83
2023/12/01 07:34:41;;;;;;;;;;;-1.10;53.50;;;-3.24;59.92;100240.34;12250501;19;19927;-84
2023/12/01 07:38:43;;;;;;;;;;;-1.10;53.50;;;-3.24;59.93;100253.97;12247006;19;20633;-81
2023/12/01 07:42:48;;;;;;;;;;;-1.10;53.50;;;-3.33;59.68;100228.50;12247953;19;19922;-86
2023/12/01 07:46:50;;;;;;;;;;;-1.10;53.50;;;-3.19;59.79;100257.31;12248310;19;19974;-86
2023/12/01 07:50:51;;;;;;;;;;;-1.10;53.50;;;-3.05;59.73;100281.91;12250073;19;20249;-87
2023/12/01 07:54:52;;;;;;;;;;;-1.10;53.50;;;-3.43;59.71;100216.66;12252942;19;19926;-86
2023/12/01 07:58:54;;;;;;;;;;;-1.10;53.50;;;-2.98;59.76;100296.34;12246475;19;20246;-86
2023/12/01 08:02:56;;;;;;;;;;;-0.70;53.70;;;-3.19;59.80;100261.59;12246677;19;19923;-86
2023/12/01 08:06:57;;;;;;;;;;;-1.10;53.50;;;-3.09;59.80;100277.72;12249865;19;19922;-85
2023/12/01 08:10:58;;;;;;;;;;;-0.70;53.70;;;-3.07;59.85;100278.56;12247325;19;20334;-86
2023/12/01 08:15:00;;;;;;;;;;;-0.70;53.70;;;-2.94;59.87;100295.50;12251728;19;19926;-87
2023/12/01 08:19:02;;;;;;;;;;;-1.00;53.60;;;-2.98;59.84;100296.34;12246676;19;19969;-86
2023/12/01 08:23:03;;;;;;;;;;;-0.80;53.80;;;-2.86;59.91;100319.28;12249167;19;19956;-86
2023/12/01 08:27:05;;;;;;;;;;;-0.90;53.70;;;-2.86;59.90;100315.84;12249663;19;19911;-86
2023/12/01 08:31:06;;;;;;;;;;;-0.80;53.70;;;-2.82;59.90;100325.19;12246025;19;19923;-86
2023/12/01 08:35:08;;;;;;;;;;;-0.90;53.70;;;-2.80;59.93;100326.88;12250063;19;19914;-86
2023/12/01 08:39:10;;;;;;;;;;;-0.80;53.80;;;-2.84;60.02;100309.88;12243882;19;20329;-86
2023/12/01 08:43:11;;;;;;;;;;;-0.80;53.80;;;-2.79;60.12;100325.19;12249962;19;19918;-86
2023/12/01 08:47:15;;;;;;;;;;;-0.70;53.80;;;-2.73;60.05;100336.22;12249529;19;19915;-87
2023/12/01 08:51:16;;;;;;;;;;;-0.80;53.80;;;-3.01;59.99;100281.06;12244805;19;19992;-86
2023/12/01 08:55:17;;;;;;;;;;;-0.70;53.90;;;-2.64;59.91;100340.41;12248140;19;19936;-87
2023/12/01 08:59:19;;;;;;;;;;;-0.50;54.00;;;-3.04;60.13;100273.41;12244267;19;19923;-86
2023/12/01 09:03:20;;;;;;;;;;;-0.70;53.90;;;-2.73;60.15;100328.56;12247969;19;19922;-86
2023/12/01 09:07:21;;;;;;;;;;;-0.60;53.90;;;-2.72;60.01;100314.06;12246871;19;19926;-87
2023/12/01 09:11:23;;;;;;;;;;;-0.60;54.00;;;-2.60;60.02;100346.31;12245446;19;19907;-87
2023/12/01 09:15:24;;;;;;;;;;;-0.50;54.00;;;-2.76;60.03;100330.25;12245866;19;19923;-86
2023/12/01 09:19:26;;;;;;;;;;;-0.50;54.00;;;-2.56;60.16;100355.69;12245647;19;19919;-86
2023/12/01 09:23:27;;;;;;;;;;;-0.50;54.10;;;-2.54;60.04;100351.38;12245852;19;19931;-86
2023/12/01 09:27:28;;;;;;;;;;;-0.40;54.10;;;-2.63;60.24;100323.34;12246283;19;19927;-86
2023/12/01 09:31:30;;;;;;;;;;;-0.20;54.20;;;-2.35;60.17;100365.75;12238935;19;19982;-86
2023/12/01 09:35:31;;;;;;;;;;;-0.30;54.10;;;-2.37;60.10;100347.00;12242398;19;19927;-86
2023/12/01 09:39:33;;;;;;;;;;;-0.30;54.20;;;-2.35;60.27;100331.63;12240230;19;19986;-86
2023/12/01 09:43:35;;;;;;;;;;;-0.20;54.30;;;-2.16;60.29;100352.78;12242248;19;19949;-86
2023/12/01 09:47:40;;;;;;;;;;;0.20;54.50;;;-2.12;60.34;100341.66;12244950;19;19915;-86
2023/12/01 09:51:42;;;;;;;;;;;-0.10;54.30;;;-2.09;60.30;100339.91;12239783;19;19919;-86
2023/12/01 09:55:43;;;;;;;;;;;0.00;54.40;;;-1.99;60.38;100348.38;12240833;19;20348;-86
2023/12/01 09:59:47;;;;;;;;;;;0.20;54.50;;;-1.96;60.47;100343.22;12240596;19;19927;-86
2023/12/01 10:03:48;;;;;;;;;;;0.30;54.50;;;-1.95;60.41;100326.97;12243513;19;19926;-86
2023/12/01 10:07:50;;;;;;;;;;;0.40;54.60;;;-1.86;60.35;100334.56;12244859;19;20337;-86
2023/12/01 10:12:08;;;;;;;;;;;0.50;54.80;;;-1.65;60.36;100341.16;12240776;19;20310;-86
2023/12/01 10:16:09;;;;;;;;;;;0.30;54.70;;;-1.60;60.29;100335.97;12241350;19;19922;-88
2023/12/01 10:20:17;;;;;;;;;;;0.40;54.90;;;-1.48;60.48;100346.09;12240939;19;19943;-88
2023/12/01 10:24:23;;;;;;;;;;;0.50;55.00;;;-1.48;60.42;100323.06;12243526;19;19923;-88
2023/12/01 10:28:39;;;;;;;;;;;0.60;55.00;;;-1.26;60.46;100338.16;12245048;19;19978;-88
2023/12/01 10:32:41;;;;;;;;;;;0.70;55.10;;;-1.29;60.52;100322.81;12244275;19;19926;-88
2023/12/01 10:36:43;;;;;;;;;;;0.80;55.00;;;-1.21;60.52;100321.00;12248102;19;20287;-88
2023/12/01 10:40:44;;;;;;;;;;;0.90;55.10;;;-1.53;60.65;100255.69;12242971;19;19987;-87
2023/12/01 10:44:47;;;;;;;;;;;1.00;55.00;;;-1.09;60.43;100318.25;12257371;19;19919;-88
2023/12/01 10:48:49;;;;;;;;;;;1.40;55.10;;;-0.90;60.50;100334.22;12257199;19;20252;-88
2023/12/01 10:52:54;;;;;;;;;;;1.40;55.10;;;-1.00;60.63;100307.03;12256013;19;19945;-88
2023/12/01 10:57:31;;;;;;;;;;;1.40;55.00;;;-0.82;60.68;100326.41;12257744;19;19911;-88
2023/12/01 11:01:33;;;;;;;;;;;1.20;54.90;;;-0.79;60.62;100319.50;12254068;19;19923;-87
2023/12/01 11:05:36;;;;;;;;;;;1.30;55.00;;;-0.74;60.60;100316.88;12258271;19;19914;-87
2023/12/01 11:09:52;;;;;;;;;;;1.40;55.00;;;-0.56;60.57;100329.44;12254356;19;19915;-87
2023/12/01 11:14:17;;;;;;;;;;;1.50;55.10;;;-0.65;60.62;100309.03;12258696;19;20380;-86
2023/12/01 11:18:19;;;;;;;;;;;1.50;55.10;;;-0.48;60.61;100324.19;12255912;19;19926;-86
2023/12/01 11:22:25;;;;;;;;;;;1.80;55.20;;;-0.45;60.68;100308.72;12251842;19;19925;-86
2023/12/01 11:26:31;;;;;;;;;;;1.70;55.20;;;-0.42;60.60;100300.16;12256317;19;20322;-87
2023/12/01 11:30:52;;;;;;;;;;;1.90;55.20;;;-0.20;60.66;100316.00;12252828;19;19919;-87
2023/12/01 11:35:04;;;;;;;;;;;1.80;55.20;;;-0.13;60.76;100317.59;12245406;19;19926;-86
2023/12/01 11:39:27;;;;;;;;;;;1.80;55.20;;;-0.03;60.75;100331.94;12252441;19;19914;-88
2023/12/01 11:43:30;;;;;;;;;;;2.00;55.30;;;-0.09;60.78;100322.63;12254848;19;19955;-86
2023/12/01 11:47:32;;;;;;;;;;;2.00;55.30;;;-0.02;60.74;100311.38;12255348;19;20252;-91
2023/12/01 11:51:34;;;;;;;;;;;2.20;55.30;;;0.01;60.74;100294.25;12250668;19;20323;-86
2023/12/01 11:55:35;;;;;;;;;;;2.10;55.30;;;-0.30;60.69;100233.22;12252702;19;19935;-89
2023/12/01 11:59:37;;;;;;;;;;;2.40;55.40;;;0.28;60.58;100324.53;12234915;19;19919;-86
2023/12/01 12:03:39;;;;;;;;;;;2.20;55.20;;;0.30;60.76;100312.50;12246308;19;19935;-87
2023/12/01 12:07:41;;;;;;;;;;;2.50;55.30;;;0.12;60.74;100282.03;12248548;19;19974;-86
2023/12/01 12:11:45;;;;;;;;;;;2.60;55.40;;;0.40;60.75;100320.84;12245121;19;19911;-86
2023/12/01 12:15:46;;;;;;;;;;;2.70;55.40;;;0.42;60.66;100314.81;12250539;19;20361;-86
2023/12/01 12:19:49;;;;;;;;;;;2.50;55.20;;;0.53;60.90;100318.88;12248123;19;20381;-86
2023/12/01 12:23:51;;;;;;;;;;;2.50;55.30;;;0.61;60.67;100327.28;12249898;19;19923;-86
2023/12/01 12:27:52;;;;;;;;;;;2.60;55.30;;;0.57;60.64;100310.25;12252949;19;19933;-86
2023/12/01 12:31:53;;;;;;;;;;;2.60;55.20;;;0.71;60.74;100326.22;12253354;19;19919;-86
2023/12/01 12:35:55;;;;;;;;;;;2.70;55.20;;;0.74;60.78;100321.00;12262822;19;20294;-86
2023/12/01 12:39:57;;;;;;;;;;;2.80;55.20;;;0.79;60.87;100320.91;12259260;19;19915;-86
2023/12/01 12:44:00;;;;;;;;;;;2.80;55.20;;;0.76;60.85;100303.00;12257850;19;19918;-86
2023/12/01 12:48:11;;;;;;;;;;;3.00;55.20;;;0.91;60.57;100319.78;12265461;19;19914;-86
2023/12/01 12:52:13;;;;;;;;;;;2.90;55.20;;;0.98;60.81;100329.06;12252585;19;19914;-86
2023/12/01 12:56:15;;;;;;;;;;;3.00;55.20;;;1.01;60.65;100332.41;12254829;19;19919;-87
2023/12/01 13:00:17;;;;;;;;;;;3.00;55.20;;;1.01;60.84;100318.72;12251560;19;19919;-87
2023/12/01 13:04:19;;;;;;;;;;;3.00;55.20;;;1.09;60.62;100324.53;12247190;19;19919;-86
2023/12/01 13:08:21;;;;;;;;;;;3.00;55.10;;;1.01;60.70;100305.88;12252015;19;20393;-86
2023/12/01 13:12:22;;;;;;;;;;;3.00;55.10;;;0.77;60.64;100277.25;12246350;19;19928;-86
2023/12/01 13:16:24;;;;;;;;;;;3.00;55.00;;;1.13;60.50;100336.41;12245191;19;19974;-87
2023/12/01 13:20:26;;;;;;;;;;;3.10;55.10;;;0.86;60.70;100282.19;12243893;19;20238;-87
2023/12/01 13:24:27;;;;;;;;;;;3.10;55.00;;;1.17;60.68;100338.06;12248677;19;19919;-86
2023/12/01 13:28:29;;;;;;;;;;;3.10;54.90;;;1.14;60.64;100335.56;12247478;19;20321;-86
2023/12/01 13:32:30;;;;;;;;;;;3.20;55.00;;;1.09;60.67;100321.97;12252171;19;19935;-87
2023/12/01 13:36:31;;;;;;;;;;;3.40;55.00;;;1.23;60.72;100343.06;12253027;19;19952;-87
2023/12/01 13:40:33;;;;;;;;;;;3.20;54.90;;;0.92;60.76;100291.50;12249680;19;19933;-87
2023/12/01 13:44:35;;;;;;;;;;;3.20;55.00;;;1.30;60.68;100349.75;12250435;19;19961;-86
2023/12/01 13:48:36;;;;;;;;;;;3.20;54.90;;;1.23;60.52;100357.63;12247611;19;20325;-86
2023/12/01 13:52:38;;;;;;;;;;;3.20;54.90;;;1.01;60.53;100317.00;12250185;19;19927;-86
2023/12/01 13:56:40;;;;;;;;;;;3.20;54.90;;;1.14;60.43;100343.28;12252667;19;19918;-87
2023/12/01 14:00:41;;;;;;;;;;;3.20;54.80;;;1.18;60.61;100362.88;12248736;19;19922;-86
2023/12/01 14:04:42;;;;;;;;;;;3.10;54.80;;;1.17;60.41;100363.78;12250178;19;19919;-86
2023/12/01 14:08:44;;;;;;;;;;;3.10;54.80;;;1.21;60.52;100375.66;12237203;19;20400;-86
2023/12/01 14:12:46;;;;;;;;;;;3.30;54.80;;;1.14;60.59;100358.69;12242044;19;19923;-86
2023/12/01 14:16:48;;;;;;;;;;;3.10;54.70;;;1.20;60.52;100366.28;12238857;19;19919;-86
2023/12/01 14:20:49;;;;;;;;;;;3.20;54.80;;;1.20;60.54;100368.84;12237915;19;19922;-86
2023/12/01 14:24:51;;;;;;;;;;;3.20;54.70;;;1.29;60.37;100370.34;12242591;19;19918;-86
2023/12/01 14:28:52;;;;;;;;;;;3.10;54.70;;;1.17;60.48;100348.34;12243021;19;19927;-86
2023/12/01 14:32:55;;;;;;;;;;;3.10;54.60;;;1.13;60.59;100362.13;12239919;19;19927;-86
2023/12/01 14:36:56;;;;;;;;;;;3.10;54.60;;;1.25;60.40;100390.16;12238752;19;19990;-86
2023/12/01 14:40:58;;;;;;;;;;;3.10;54.60;;;1.23;60.25;100383.34;12236337;19;19927;-86
2023/12/01 14:44:59;;;;;;;;;;;3.10;54.50;;;1.18;60.25;100383.44;12242711;19;19915;-86
2023/12/01 14:49:01;;;;;;;;;;;3.00;54.50;;;1.08;60.28;100366.53;12243692;19;19971;-86
2023/12/01 14:53:03;;;;;;;;;;;3.00;54.50;;;1.16;60.48;100394.66;12246686;19;19918;-86
2023/12/01 14:57:06;;;;;;;;;;;3.00;54.50;;;1.11;60.31;100392.19;12245782;19;20230;-86
2023/12/01 15:01:10;;;;;;;;;;;3.00;54.50;;;0.85;60.40;100351.63;12241287;19;19957;-86
2023/12/01 15:05:11;;;;;;;;;;;2.90;54.50;;;1.10;60.21;100395.63;12244130;19;20352;-86
2023/12/01 15:09:14;;;;;;;;;;;2.90;54.50;;;0.93;60.21;100367.72;12243368;19;19918;-86
2023/12/01 15:13:16;;;;;;;;;;;2.90;54.50;;;0.98;60.29;100378.75;12243257;19;19927;-86
2023/12/01 15:17:17;;;;;;;;;;;3.20;54.60;;;0.90;60.05;100361.81;12241199;19;20015;-86
2023/12/01 15:21:19;;;;;;;;;;;2.80;54.40;;;0.93;60.06;100388.28;12241620;19;19944;-86
2023/12/01 15:25:20;;;;;;;;;;;2.80;54.40;;;0.95;60.18;100390.84;12243808;19;19949;-86
2023/12/01 15:29:23;;;;;;;;;;;2.70;54.30;;;0.77;60.21;100369.75;12243652;19;20337;-86
2023/12/01 15:33:24;;;;;;;;;;;2.70;54.30;;;0.87;60.09;100407.25;12256736;19;19932;-86
2023/12/01 15:37:26;;;;;;;;;;;2.70;54.30;;;0.77;60.03;100395.47;12257007;19;19923;-86
2023/12/01 15:41:27;;;;;;;;;;;2.80;54.40;;;0.65;60.07;100395.72;12257181;19;19915;-86
2023/12/01 15:45:28;;;;;;;;;;;2.50;54.30;;;0.68;60.04;100400.81;12249133;19;19919;-86
2023/12/01 15:49:30;;;;;;;;;;;2.50;54.30;;;0.68;59.98;100415.38;12260813;19;19922;-86
2023/12/01 15:53:31;;;;;;;;;;;2.50;54.30;;;0.58;60.08;100407.00;12258543;19;19934;-85
2023/12/01 15:57:32;;;;;;;;;;;2.40;54.20;;;0.48;59.84;100395.19;12259392;19;19943;-86
2023/12/01 16:01:34;;;;;;;;;;;2.40;54.20;;;0.55;59.88;100414.75;12252532;19;19986;-86
2023/12/01 16:05:35;;;;;;;;;;;2.30;54.20;;;0.44;60.14;100415.81;12246594;19;19914;-86
2023/12/01 16:09:36;;;;;;;;;;;2.30;54.20;;;0.46;59.79;100426.06;12256074;19;20363;-86
2023/12/01 16:13:38;;;;;;;;;;;2.20;54.20;;;0.33;59.74;100435.69;12254670;19;19914;-86
2023/12/01 16:17:39;;;;;;;;;;;2.50;54.60;;;0.32;59.88;100443.41;12251769;19;19915;-86
2023/12/01 16:21:44;;;;;;;;;;;2.10;54.40;;;0.16;59.78;100437.69;12234679;19;19933;-86
2023/12/01 16:25:47;;;;;;;;;;;2.00;54.00;;;0.24;59.79;100453.81;12244563;19;20565;-86
2023/12/01 16:29:48;;;;;;;;;;;2.00;54.10;;;0.15;59.89;100459.13;12244785;19;19926;-86
2023/12/01 16:33:50;;;;;;;;;;;1.90;54.00;;;0.09;59.76;100477.22;12245987;19;19919;-85
2023/12/01 16:37:52;;;;;;;;;;;1.80;54.00;;;-0.25;59.80;100432.38;12244647;19;19923;-85
2023/12/01 16:41:53;;;;;;;;;;;1.70;53.80;;;-0.11;59.82;100467.22;12243772;19;19919;-85
2023/12/01 16:45:55;;;;;;;;;;;1.70;53.80;;;-0.25;59.68;100475.16;12246572;19;19914;-85
2023/12/01 16:49:56;;;;;;;;;;;1.60;53.70;;;-0.33;59.72;100479.53;12246145;19;19918;-85
2023/12/01 16:53:58;;;;;;;;;;;1.50;53.70;;;-0.36;59.71;100487.28;12245366;19;19926;-85
2023/12/01 16:57:59;;;;;;;;;;;1.40;53.80;;;-0.47;59.85;100480.59;12246004;19;19935;-86
2023/12/01 17:02:01;;;;;;;;;;;1.30;53.90;;;-0.55;59.84;100479.00;12243566;19;19918;-85
2023/12/01 17:06:03;;;;;;;;;;;1.30;54.00;;;-0.58;59.81;100486.75;12244207;19;19915;-85
2023/12/01 17:10:05;;;;;;;;;;;1.20;54.10;;;-0.51;59.88;100496.06;12237857;19;20333;-85
2023/12/01 17:14:07;;;;;;;;;;;1.10;54.10;;;-0.54;59.82;100490.94;12244353;19;19930;-85
2023/12/01 17:18:09;;;;;;;;;;;1.10;54.20;;;-0.67;59.71;100467.19;12242886;19;19939;-85
2023/12/01 17:22:11;;;;;;;;;;;1.10;54.20;;;-0.60;59.82;100488.47;12240821;19;19933;-85
2023/12/01 17:26:12;;;;;;;;;;;1.10;54.30;;;-0.71;59.85;100470.66;12236072;19;19918;-85
2023/12/01 17:30:14;;;;;;;;;;;1.40;54.40;;;-0.63;59.77;100491.91;12236399;19;19923;-85
2023/12/01 17:34:16;;;;;;;;;;;1.10;54.30;;;-0.83;59.63;100475.97;12240563;19;20274;-85
2023/12/01 17:38:17;;;;;;;;;;;1.00;54.10;;;-0.77;59.67;100486.13;12244943;19;19923;-85
2023/12/01 17:42:21;;;;;;;;;;;1.00;54.10;;;-1.17;59.68;100422.53;12238663;19;19922;-85
2023/12/01 17:46:23;;;;;;;;;;;0.90;54.10;;;-0.87;59.73;100479.41;12247166;19;19919;-85
2023/12/01 17:50:24;;;;;;;;;;;1.10;54.30;;;-0.86;59.80;100505.03;12237214;19;19923;-85
2023/12/01 17:54:26;;;;;;;;;;;0.90;54.20;;;-0.84;59.62;100502.44;12236089;19;19951;-85
2023/12/01 17:58:28;;;;;;;;;;;0.90;54.30;;;-0.89;59.73;100497.38;12241123;19;19919;-85
2023/12/01 18:02:29;;;;;;;;;;;0.80;54.30;;;-0.95;59.79;100467.53;12239763;19;19915;-85
2023/12/01 18:06:31;;;;;;;;;;;0.80;54.30;;;-0.85;59.94;100480.25;12241642;19;19945;-85
2023/12/01 18:10:32;;;;;;;;;;;0.90;54.40;;;-0.83;59.81;100468.28;12236757;19;19929;-85
2023/12/01 18:14:34;;;;;;;;;;;0.80;54.40;;;-0.91;59.89;100456.38;12241587;19;19930;-86
2023/12/01 18:18:36;;;;;;;;;;;0.90;54.50;;;-0.96;59.89;100447.91;12219383;19;19922;-86
2023/12/01 18:22:37;;;;;;;;;;;0.80;54.40;;;-0.96;59.91;100486.34;12241330;19;20327;-85